Time;durP1;ratioP1;P1;durP2;ratioP2;P2;SDS_P1;SDS_P2;PMS_P1;PMS_P2;Temp;Humidity;BMP_temperature;BMP_pressure;BME280_temperature;BME280_humidity;BME280_pressure;Samples;Min_cycle;Max_cycle;Signal;HPM_P1;HPM_P2
2021/04/27 00:02:21;;;;;;;12.37;4.50;;;2.80;61.80;;;;;;6195461;23;20405;-81
2021/04/27 00:05:22;;;;;;;;;;;;;;;;;;;;;
2021/04/27 00:08:11;;;;;;;28.30;3.90;;;2.60;69.90;;;;;;6131159;23;20481;-81
2021/04/27 00:13:31;;;;;;;10.80;4.90;;;2.40;67.40;;;;;;6183808;23;20488;-81
2021/04/27 00:16:24;;;;;;;11.60;4.60;;;2.50;76.20;;;;;;6195086;23;20726;-81
2021/04/27 00:19:04;;;;;;;;;;;;;;;;;;;;;
2021/04/27 00:21:34;;;;;;;12.03;3.87;;;2.50;69.10;;;;;;6185142;23;20806;-81
2021/04/27 00:24:10;;;;;;;;;;;;;;;;;;;;;
2021/04/27 00:26:41;;;;;;;13.03;4.80;;;2.20;71.80;;;;;;6149984;23;20444;-81
2021/04/27 00:32:27;;;;;;;;;;;;;;;;;;;;;
2021/04/27 00:35:16;;;;;;;7.93;3.03;;;2.20;79.00;;;;;;6158570;23;20459;-82
2021/04/27 00:38:31;;;;;;;;;;;;;;;;;;;;;
2021/04/27 00:41:16;;;;;;;;;;;;;;;;;;;;;
2021/04/27 00:43:52;;;;;;;7.50;2.60;;;2.20;99.90;;;;;;6156821;23;20405;-81
2021/04/27 00:46:26;;;;;;;8.98;3.88;;;2.20;99.90;;;;;;6195168;23;20447;-81
2021/04/27 00:48:59;;;;;;;12.53;3.50;;;2.10;99.90;;;;;;6215910;23;20204;-81
2021/04/27 00:51:35;;;;;;;8.53;4.37;;;2.00;99.10;;;;;;6215933;23;20404;-81
2021/04/27 00:54:13;;;;;;;;;;;;;;;;;;;;;
2021/04/27 00:56:49;;;;;;;10.65;2.92;;;1.90;99.90;;;;;;6181373;23;20408;-82
2021/04/27 00:59:35;;;;;;;13.50;4.63;;;2.00;99.00;;;;;;6219990;23;20161;-81
2021/04/27 01:02:38;;;;;;;9.80;3.85;;;1.80;99.20;;;;;;6217157;23;20439;-81
2021/04/27 01:05:31;;;;;;;17.13;5.30;;;1.80;99.90;;;;;;6207442;23;20656;-82
2021/04/27 01:08:34;;;;;;;;;;;;;;;;;;;;;
2021/04/27 01:11:29;;;;;;;12.33;4.40;;;1.70;99.90;;;;;;6128569;23;20786;-82
2021/04/27 01:14:32;;;;;;;9.93;4.00;;;1.70;99.90;;;;;;6047293;23;20421;-82
2021/04/27 01:17:36;;;;;;;7.57;3.33;;;1.60;99.90;;;;;;6035648;23;20440;-82
2021/04/27 01:20:53;;;;;;;9.80;4.30;;;1.50;99.90;;;;;;6196575;23;20419;-82
2021/04/27 01:24:19;;;;;;;8.15;4.32;;;1.50;99.90;;;;;;6186476;23;20405;-82
2021/04/27 01:27:10;;;;;;;9.33;4.70;;;1.40;99.90;;;;;;6184583;23;20186;-81
2021/04/27 01:30:04;;;;;;;11.25;5.30;;;1.40;99.90;;;;;;6166937;23;20440;-82
2021/04/27 01:32:40;;;;;;;10.73;4.80;;;1.30;99.90;;;;;;6184306;23;20187;-82
2021/04/27 01:35:24;;;;;;;;;;;;;;;;;;;;;
2021/04/27 01:38:30;;;;;;;;;;;;;;;;;;;;;
2021/04/27 01:47:39;;;;;;;11.33;4.30;;;1.10;99.90;;;;;;6043216;23;20436;-81
2021/04/27 01:50:39;;;;;;;8.87;4.47;;;1.00;99.90;;;;;;6066213;23;20500;-81
2021/04/27 01:53:44;;;;;;;;;;;;;;;;;;;;;
2021/04/27 01:56:13;;;;;;;8.77;5.30;;;0.90;99.90;;;;;;6074246;23;20168;-82
2021/04/27 01:59:12;;;;;;;;;;;;;;;;;;;;;
2021/04/27 02:01:42;;;;;;;14.13;7.30;;;0.90;99.90;;;;;;6119780;23;20412;-82
2021/04/27 02:04:11;;;;;;;9.07;6.20;;;0.80;99.90;;;;;;6177080;23;20572;-81
2021/04/27 02:06:37;;;;;;;12.43;7.00;;;0.80;99.90;;;;;;6225671;23;20494;-81
2021/04/27 02:09:45;;;;;;;;;;;;;;;;;;;;;
2021/04/27 02:12:30;;;;;;;10.68;7.30;;;0.70;99.90;;;;;;6157373;23;20420;-81
2021/04/27 02:17:59;;;;;;;13.32;9.95;;;0.80;99.90;;;;;;6205953;23;20752;-81
2021/04/27 02:21:02;;;;;;;15.32;9.43;;;0.70;99.90;;;;;;6216475;23;20213;-82
2021/04/27 02:27:37;;;;;;;;;;;;;;;;;;;;;
2021/04/27 02:30:09;;;;;;;7.80;6.90;;;0.70;99.90;;;;;;6183095;23;20211;-82
2021/04/27 02:33:03;;;;;;;9.75;8.65;;;0.60;99.90;;;;;;6186170;23;20154;-82
2021/04/27 02:35:49;;;;;;;12.35;8.50;;;0.50;99.90;;;;;;6195731;23;20154;-81
2021/04/27 02:38:42;;;;;;;9.95;9.02;;;0.50;99.90;;;;;;6199303;23;20177;-82
2021/04/27 02:41:23;;;;;;;9.02;7.80;;;0.40;99.90;;;;;;6184660;23;20162;-82
2021/04/27 02:44:06;;;;;;;;;;;;;;;;;;;;;
2021/04/27 02:47:31;;;;;;;;;;;;;;;;;;;;;
2021/04/27 02:50:15;;;;;;;;;;;;;;;;;;;;;
2021/04/27 02:52:49;;;;;;;13.35;11.07;;;0.40;99.90;;;;;;6144729;23;20168;-82
2021/04/27 02:55:51;;;;;;;;;;;;;;;;;;;;;
2021/04/27 03:21:43;;;;;;;;;;;;;;;;;;;;;
2021/04/27 04:43:43;;;;;;;;;;;;;;;;;;;;;
2021/04/27 06:45:32;;;;;;;;;;;;;;;;;;;;;
2021/04/27 07:11:05;;;;;;;8.47;1.90;;;8.50;1.00;;;;;;5951507;23;20530;-84
2021/04/27 07:14:01;;;;;;;13.70;3.13;;;8.60;1.00;;;;;;6008558;23;20557;-83
2021/04/27 07:16:43;;;;;;;10.20;3.10;;;8.80;1.00;;;;;;5893579;24;20482;-83
2021/04/27 07:19:38;;;;;;;;;;;;;;;;;;;;;
2021/04/27 07:22:39;;;;;;;9.33;2.27;;;9.00;1.00;;;;;;6202164;23;20494;-83
2021/04/27 07:28:42;;;;;;;9.47;2.20;;;9.10;1.00;;;;;;6167703;23;20439;-84
2021/04/27 07:31:21;;;;;;;9.23;2.23;;;9.20;1.00;;;;;;6035059;23;20430;-84
2021/04/27 07:33:56;;;;;;;10.27;2.47;;;9.30;1.00;;;;;;6044764;23;20410;-84
2021/04/27 07:36:51;;;;;;;9.80;1.93;;;9.50;1.00;;;;;;6160150;23;20445;-83
2021/04/27 07:58:18;;;;;;;12.20;2.20;;;10.60;1.00;;;;;;5858818;24;20423;-78
2021/04/27 08:07:30;;;;;;;;;;;;;;;;;;;;;
2021/04/27 08:14:20;;;;;;;;;;;;;;;;;;;;;
2021/04/27 08:17:28;;;;;;;;;;;;;;;;;;;;;
2021/04/27 11:04:52;;;;;;;33.27;3.30;;;19.70;1.00;;;;;;5835273;24;20503;-83
2021/04/27 11:14:33;;;;;;;;;;;;;;;;;;;;;
2021/04/27 11:21:12;;;;;;;;;;;;;;;;;;;;;
2021/04/27 11:23:52;;;;;;;36.33;2.73;;;23.00;1.00;;;;;;6032109;23;20438;-82
2021/04/27 11:26:45;;;;;;;36.63;3.10;;;23.00;1.00;;;;;;6244815;23;20427;-83
2021/04/27 11:32:56;;;;;;;;;;;;;;;;;;;;;
2021/04/27 11:36:21;;;;;;;;;;;;;;;;;;;;;
2021/04/27 11:39:31;;;;;;;38.03;2.90;;;22.10;1.00;;;;;;6061273;23;20420;-83
2021/04/27 11:42:40;;;;;;;38.00;3.23;;;20.50;1.00;;;;;;6038718;23;20443;-84
2021/04/27 12:01:02;;;;;;;36.97;2.97;;;22.30;1.00;;;;;;5879147;24;20426;-82
2021/04/27 12:03:53;;;;;;;36.90;2.43;;;20.60;1.00;;;;;;5948299;24;20427;-83
2021/04/27 12:06:40;;;;;;;34.87;3.43;;;20.60;1.00;;;;;;5896969;24;20526;-83
2021/04/27 12:09:12;;;;;;;33.87;2.77;;;20.90;1.00;;;;;;5965853;23;20421;-83
2021/04/27 12:12:24;;;;;;;;;;;;;;;;;;;;;
2021/04/27 12:18:23;;;;;;;;;;;;;;;;;;;;;
2021/04/27 12:24:35;;;;;;;;;;;;;;;;;;;;;
2021/04/27 12:27:36;;;;;;;;;;;;;;;;;;;;;
2021/04/27 12:34:01;;;;;;;32.40;2.87;;;20.60;1.00;;;;;;6203678;23;20407;-83
2021/04/27 12:37:12;;;;;;;;;;;;;;;;;;;;;
2021/04/27 12:42:43;;;;;;;;;;;;;;;;;;;;;
2021/04/27 12:45:49;;;;;;;31.27;2.73;;;22.30;1.00;;;;;;6172629;23;20407;-83
2021/04/27 12:48:25;;;;;;;32.13;2.90;;;21.40;1.00;;;;;;6216699;23;20400;-83
2021/04/27 12:51:19;;;;;;;;;;;;;;;;;;;;;
2021/04/27 12:54:35;;;;;;;33.40;2.33;;;20.60;1.00;;;;;;6227071;23;20726;-83
2021/04/27 12:57:41;;;;;;;;;;;;;;;;;;;;;
2021/04/27 13:00:17;;;;;;;30.50;2.20;;;20.10;1.00;;;;;;6190033;23;20729;-83
2021/04/27 13:06:24;;;;;;;30.37;2.60;;;21.20;1.00;;;;;;6066057;23;20451;-84
2021/04/27 13:09:06;;;;;;;31.27;3.00;;;21.40;1.00;;;;;;6161624;23;20418;-81
2021/04/27 13:11:36;;;;;;;33.43;3.10;;;21.10;1.00;;;;;;6215701;23;20371;-82
2021/04/27 13:14:31;;;;;;;31.97;2.70;;;22.20;1.00;;;;;;6239773;22;20438;-78
2021/04/27 13:17:00;;;;;;;31.83;2.63;;;23.30;1.00;;;;;;6214945;23;20463;-82
2021/04/27 13:19:27;;;;;;;33.77;2.57;;;23.10;1.00;;;;;;6257556;23;20406;-82
2021/04/27 13:22:15;;;;;;;33.20;2.30;;;23.10;1.00;;;;;;6257264;23;20485;-82
2021/04/27 13:24:46;;;;;;;34.07;3.30;;;23.70;1.00;;;;;;6247108;23;20474;-81
2021/04/27 13:27:14;;;;;;;34.00;2.80;;;22.70;1.00;;;;;;6255583;23;20450;-82
2021/04/27 13:29:43;;;;;;;33.40;2.07;;;23.50;1.00;;;;;;6246990;23;20482;-83
2021/04/27 13:32:36;;;;;;;34.70;3.13;;;22.90;1.00;;;;;;6247009;23;20460;-82
2021/04/27 13:35:19;;;;;;;35.77;3.27;;;23.20;1.00;;;;;;6246681;23;20431;-82
2021/04/27 13:37:51;;;;;;;34.33;2.53;;;22.20;1.00;;;;;;6246976;23;20411;-83
2021/04/27 13:40:19;;;;;;;35.17;2.70;;;23.30;1.00;;;;;;6255475;23;20377;-82
2021/04/27 13:42:50;;;;;;;36.00;2.80;;;24.10;1.00;;;;;;6257304;23;20404;-82
2021/04/27 13:45:19;;;;;;;36.13;2.70;;;24.40;1.00;;;;;;6256545;23;20386;-82
2021/04/27 13:47:47;;;;;;;36.40;3.13;;;23.70;1.00;;;;;;6256714;23;20431;-83
2021/04/27 13:50:14;;;;;;;39.10;3.17;;;22.60;1.00;;;;;;6257094;23;20940;-81
2021/04/27 13:52:41;;;;;;;35.80;2.60;;;23.70;1.00;;;;;;6246965;23;20458;-82
2021/04/27 13:55:50;;;;;;;38.00;3.10;;;23.60;1.00;;;;;;6245608;23;20385;-83
2021/04/27 13:59:30;;;;;;;;;;;;;;;;;;;;;
2021/04/27 14:02:36;;;;;;;;;;;;;;;;;;;;;
2021/04/27 14:08:51;;;;;;;38.10;2.60;;;22.60;1.00;;;;;;6061429;23;20977;-83
2021/04/27 14:12:15;;;;;;;;;;;;;;;;;;;;;
2021/04/27 14:18:17;;;;;;;42.63;3.33;;;23.40;1.00;;;;;;6245960;23;20772;-83
2021/04/27 14:21:07;;;;;;;;;;;;;;;;;;;;;
2021/04/27 14:27:02;;;;;;;;;;;;;;;;;;;;;
2021/04/27 14:33:08;;;;;;;;;;;;;;;;;;;;;
2021/04/27 14:40:11;;;;;;;36.27;1.97;;;23.70;1.00;;;;;;6063985;23;20424;-83
2021/04/27 14:43:23;;;;;;;;;;;;;;;;;;;;;
2021/04/27 14:46:10;;;;;;;36.10;2.30;;;22.80;1.00;;;;;;5980454;23;20538;-83
2021/04/27 14:49:34;;;;;;;;;;;;;;;;;;;;;
2021/04/27 14:55:30;;;;;;;34.40;2.57;;;22.50;1.00;;;;;;6197648;23;20415;-84
2021/04/27 14:58:08;;;;;;;36.00;2.80;;;22.80;1.00;;;;;;6245902;23;20407;-82
2021/04/27 15:01:26;;;;;;;;;;;;;;;;;;;;;
2021/04/27 15:07:49;;;;;;;;;;;;;;;;;;;;;
2021/04/27 15:17:43;;;;;;;;;;;;;;;;;;;;;
2021/04/27 15:20:35;;;;;;;38.20;2.37;;;23.00;1.00;;;;;;5984959;23;20416;-83
2021/04/27 15:23:07;;;;;;;38.40;2.20;;;22.40;1.00;;;;;;6180511;23;20439;-83
2021/04/27 15:28:56;;;;;;;38.60;2.97;;;23.80;1.00;;;;;;6124929;23;20381;-77
2021/04/27 15:31:23;;;;;;;38.20;2.40;;;24.10;1.00;;;;;;6246144;23;20370;-80
2021/04/27 15:33:49;;;;;;;39.10;2.20;;;24.30;1.00;;;;;;6245516;23;20370;-78
2021/04/27 15:36:17;;;;;;;40.73;2.80;;;25.10;1.00;;;;;;6245698;23;20458;-77
2021/04/27 15:38:43;;;;;;;42.73;2.97;;;25.30;1.00;;;;;;6245648;23;20395;-79
2021/04/27 15:41:10;;;;;;;42.47;2.87;;;25.00;1.00;;;;;;6243893;23;20396;-78
2021/04/27 15:43:38;;;;;;;42.40;2.73;;;24.50;1.00;;;;;;6245280;23;20374;-77
2021/04/27 15:46:05;;;;;;;45.27;3.10;;;24.60;1.00;;;;;;6245805;23;20395;-78
2021/04/27 15:48:31;;;;;;;43.60;3.00;;;24.60;1.00;;;;;;6255288;23;20385;-80
2021/04/27 15:50:57;;;;;;;43.50;3.20;;;24.90;1.00;;;;;;6255636;23;20422;-80
2021/04/27 15:53:25;;;;;;;43.70;2.93;;;25.00;1.00;;;;;;6255351;23;20433;-83
2021/04/27 15:55:51;;;;;;;43.77;2.70;;;25.30;1.00;;;;;;6253502;23;20407;-78
2021/04/27 15:58:17;;;;;;;43.47;2.60;;;25.60;1.00;;;;;;6245586;23;20403;-79
2021/04/27 16:00:44;;;;;;;45.07;2.93;;;25.50;1.00;;;;;;6245326;23;20937;-83
2021/04/27 16:03:10;;;;;;;45.47;3.60;;;23.60;1.00;;;;;;6245013;23;20486;-79
2021/04/27 16:05:36;;;;;;;43.37;3.20;;;22.80;1.00;;;;;;6245092;23;20970;-80
2021/04/27 16:08:03;;;;;;;42.53;3.10;;;22.40;1.00;;;;;;6244972;23;20437;-80
2021/04/27 16:10:31;;;;;;;40.63;2.17;;;22.00;1.00;;;;;;6243727;23;20812;-79
2021/04/27 16:12:59;;;;;;;39.87;2.20;;;21.80;1.00;;;;;;6245855;22;20819;-77
2021/04/27 16:15:26;;;;;;;39.30;2.17;;;22.00;1.00;;;;;;6256011;23;20399;-78
2021/04/27 16:17:52;;;;;;;39.80;2.77;;;21.80;1.00;;;;;;6245520;23;20395;-77
2021/04/27 16:20:20;;;;;;;44.60;3.10;;;21.60;1.00;;;;;;6245677;23;20711;-76
2021/04/27 16:22:47;;;;;;;36.50;2.07;;;21.80;1.00;;;;;;6257459;23;20446;-78
2021/04/27 16:25:14;;;;;;;38.57;2.50;;;22.10;1.00;;;;;;6246421;23;20376;-81
2021/04/27 16:27:41;;;;;;;37.07;2.60;;;21.20;1.00;;;;;;6247323;23;20442;-80
2021/04/27 16:30:09;;;;;;;35.17;2.03;;;21.30;1.00;;;;;;6247663;23;20405;-81
2021/04/27 16:32:50;;;;;;;35.60;2.57;;;21.30;1.00;;;;;;6247022;23;20399;-84
2021/04/27 16:35:20;;;;;;;36.17;2.90;;;21.70;1.00;;;;;;6247386;23;20773;-83
2021/04/27 16:37:51;;;;;;;35.00;2.67;;;22.00;1.00;;;;;;6247620;23;20411;-81
2021/04/27 16:40:34;;;;;;;;;;;;;;;;;;;;;
2021/04/27 16:43:07;;;;;;;35.13;2.63;;;22.30;1.00;;;;;;6246684;23;20402;-81
2021/04/27 16:45:40;;;;;;;34.83;3.00;;;22.50;1.00;;;;;;6257595;23;20413;-84
2021/04/27 16:52:03;;;;;;;;;;;;;;;;;;;;;
2021/04/27 16:54:54;;;;;;;;;;;;;;;;;;;;;
2021/04/27 17:04:44;;;;;;;;;;;;;;;;;;;;;
2021/04/27 17:07:33;;;;;;;31.47;2.90;;;21.30;1.00;;;;;;6067467;23;20438;-83
2021/04/27 17:13:55;;;;;;;31.27;3.67;;;22.50;1.00;;;;;;6193292;22;20438;-82
2021/04/27 17:17:32;;;;;;;30.53;2.67;;;22.10;1.00;;;;;;5989942;24;20419;-82
2021/04/27 17:23:39;;;;;;;30.63;2.90;;;23.60;1.00;;;;;;5830294;24;20765;-83
2021/04/27 17:30:34;;;;;;;;;;;;;;;;;;;;;
2021/04/27 17:45:52;;;;;;;31.10;3.53;;;22.60;1.00;;;;;;5895656;23;20454;-82
2021/04/27 17:52:31;;;;;;;29.83;3.10;;;22.40;1.00;;;;;;6097971;23;20745;-82
2021/04/27 17:55:21;;;;;;;26.57;3.30;;;20.60;1.00;;;;;;5988569;23;20421;-83
2021/04/27 17:58:56;;;;;;;;;;;;;;;;;;;;;
2021/04/27 18:09:01;;;;;;;;;;;;;;;;;;;;;
2021/04/27 18:15:40;;;;;;;20.83;3.00;;;15.60;1.00;;;;;;5889316;24;20414;-85
2021/04/27 18:21:56;;;;;;;;;;;;;;;;;;;;;
2021/04/27 18:31:21;;;;;;;;;;;;;;;;;;;;;
2021/04/27 18:45:37;;;;;;;13.20;2.10;;;12.40;1.00;;;;;;5905905;24;20634;-82
2021/04/27 18:48:20;;;;;;;14.00;3.10;;;12.10;1.00;;;;;;5962079;24;20819;-83
2021/04/27 19:17:32;;;;;;;11.37;2.00;;;10.90;1.00;;;;;;5809253;24;20528;-83
2021/04/27 19:26:47;;;;;;;12.23;2.60;;;10.50;1.00;;;;;;6117522;23;20445;-83
2021/04/27 19:43:12;;;;;;;12.90;3.10;;;10.10;1.00;;;;;;5824602;24;20424;-85
2021/04/27 19:46:45;;;;;;;;;;;;;;;;;;;;;
2021/04/27 19:54:07;;;;;;;12.37;3.03;;;10.00;1.00;;;;;;5882334;24;20505;-84
2021/04/27 19:57:17;;;;;;;;;;;;;;;;;;;;;
2021/04/27 20:00:39;;;;;;;;;;;;;;;;;;;;;
2021/04/27 20:03:39;;;;;;;11.50;2.97;;;9.40;1.00;;;;;;5922057;23;20412;-84
2021/04/27 20:06:12;;;;;;;11.93;3.33;;;9.00;1.00;;;;;;6079809;23;20423;-84
2021/04/27 20:09:35;;;;;;;12.27;2.83;;;8.80;1.00;;;;;;6106153;23;20950;-84
2021/04/27 20:15:35;;;;;;;12.83;2.93;;;8.40;1.00;;;;;;6243082;23;20423;-84
2021/04/27 20:18:49;;;;;;;10.40;2.53;;;8.30;1.00;;;;;;6256113;23;20453;-84
2021/04/27 20:21:47;;;;;;;11.53;3.17;;;8.20;1.00;;;;;;6233652;23;20458;-84
2021/04/27 20:24:37;;;;;;;10.50;2.70;;;8.00;1.00;;;;;;6190054;23;20791;-82
2021/04/27 20:27:27;;;;;;;11.97;2.47;;;7.90;1.00;;;;;;6203539;23;20445;-82
2021/04/27 20:29:59;;;;;;;10.30;2.63;;;7.80;1.00;;;;;;6236874;23;20561;-82
2021/04/27 20:32:53;;;;;;;9.60;2.33;;;7.60;1.00;;;;;;6245581;23;20457;-82
2021/04/27 20:35:37;;;;;;;11.70;1.97;;;7.50;1.00;;;;;;6148171;23;20903;-83
2021/04/27 20:41:18;;;;;;;11.23;3.07;;;7.30;1.00;;;;;;6251307;23;20416;-82
2021/04/27 20:44:13;;;;;;;11.17;2.97;;;7.10;1.00;;;;;;6255750;23;20401;-82
2021/04/27 20:46:54;;;;;;;;;;;;;;;;;;;;;
2021/04/27 20:49:57;;;;;;;;;;;;;;;;;;;;;
2021/04/27 20:52:53;;;;;;;12.47;2.83;;;6.80;6.20;;;;;;6103521;23;21122;-82
2021/04/27 20:55:40;;;;;;;9.70;3.13;;;6.70;6.10;;;;;;5959087;24;20422;-83
2021/04/27 20:58:39;;;;;;;8.97;2.37;;;6.70;7.30;;;;;;6109841;23;20446;-82
2021/04/27 21:01:45;;;;;;;9.70;3.10;;;6.60;8.50;;;;;;6064288;23;20501;-83
2021/04/27 21:14:14;;;;;;;10.03;3.07;;;6.20;12.30;;;;;;5923577;24;20518;-82
2021/04/27 21:16:45;;;;;;;9.17;1.90;;;6.10;11.80;;;;;;5964190;24;20815;-82
2021/04/27 21:19:32;;;;;;;;;;;;;;;;;;;;;
2021/04/27 21:22:40;;;;;;;;;;;;;;;;;;;;;
2021/04/27 21:25:30;;;;;;;;;;;;;;;;;;;;;
2021/04/27 21:28:35;;;;;;;12.77;4.23;;;5.70;15.00;;;;;;6129376;23;20495;-82
2021/04/27 21:31:31;;;;;;;9.50;2.90;;;5.70;13.90;;;;;;6163922;23;20482;-82
2021/04/27 21:37:37;;;;;;;14.27;3.53;;;5.80;13.70;;;;;;6164064;23;20415;-82
2021/04/27 21:40:18;;;;;;;18.93;3.77;;;5.70;13.90;;;;;;6081109;23;20419;-82
2021/04/27 21:45:41;;;;;;;9.73;3.27;;;5.60;17.20;;;;;;6139374;23;20406;-82
2021/04/27 21:48:26;;;;;;;;;;;;;;;;;;;;;
2021/04/27 21:51:23;;;;;;;;;;;;;;;;;;;;;
2021/04/27 21:54:29;;;;;;;;;;;;;;;;;;;;;
2021/04/27 21:58:11;;;;;;;;;;;;;;;;;;;;;
2021/04/27 22:01:13;;;;;;;;;;;;;;;;;;;;;
2021/04/27 22:03:51;;;;;;;9.17;2.80;;;5.10;24.50;;;;;;6017688;23;20427;-82
2021/04/27 22:06:43;;;;;;;9.50;2.83;;;5.00;25.50;;;;;;6009074;23;20430;-82
2021/04/27 22:09:48;;;;;;;11.10;3.40;;;4.90;20.60;;;;;;6085702;23;20474;-82
2021/04/27 22:12:33;;;;;;;;;;;;;;;;;;;;;
2021/04/27 22:15:03;;;;;;;13.17;3.97;;;5.00;30.00;;;;;;6051865;23;20766;-82
2021/04/27 22:21:13;;;;;;;13.80;3.67;;;4.90;23.50;;;;;;6168018;23;20502;-82
2021/04/27 22:23:56;;;;;;;9.83;3.10;;;4.90;23.00;;;;;;6225816;23;20408;-82
2021/04/27 22:26:31;;;;;;;10.87;3.70;;;4.90;25.80;;;;;;6122082;23;20411;-82
2021/04/27 22:29:19;;;;;;;10.07;3.10;;;4.80;25.60;;;;;;6123724;23;20487;-82
2021/04/27 22:38:18;;;;;;;10.63;4.67;;;4.60;28.10;;;;;;6122191;23;20411;-82
2021/04/27 22:44:17;;;;;;;16.60;4.20;;;4.50;32.60;;;;;;6115337;23;20439;-82
2021/04/27 22:46:51;;;;;;;8.63;2.60;;;4.50;30.00;;;;;;6133613;23;20414;-82
2021/04/27 22:49:44;;;;;;;9.30;3.77;;;4.20;36.10;;;;;;6123941;23;20451;-82
2021/04/27 22:52:32;;;;;;;9.40;3.37;;;4.30;43.10;;;;;;6029296;23;20418;-82
2021/04/27 22:55:29;;;;;;;10.07;2.73;;;4.20;39.80;;;;;;6170273;23;20412;-82
2021/04/27 22:58:23;;;;;;;11.97;3.60;;;4.10;39.70;;;;;;6210974;23;20745;-82
2021/04/27 23:04:35;;;;;;;11.10;3.90;;;4.10;50.00;;;;;;6226140;23;20449;-82
2021/04/27 23:07:36;;;;;;;;;;;;;;;;;;;;;
2021/04/27 23:10:52;;;;;;;;;;;;;;;;;;;;;
2021/04/27 23:13:27;;;;;;;10.43;3.40;;;3.80;51.10;;;;;;6195426;22;21150;-82
2021/04/27 23:19:22;;;;;;;10.17;4.20;;;3.80;50.60;;;;;;6191705;23;20477;-82
2021/04/27 23:22:24;;;;;;;8.97;3.10;;;3.80;59.00;;;;;;6256227;23;20402;-82
2021/04/27 23:25:24;;;;;;;;;;;;;;;;;;;;;
2021/04/27 23:31:25;;;;;;;7.80;2.73;;;3.50;67.00;;;;;;6244301;23;20444;-82
2021/04/27 23:34:19;;;;;;;8.30;3.20;;;3.50;69.90;;;;;;6245729;23;20400;-82
2021/04/27 23:37:11;;;;;;;8.77;2.60;;;3.60;70.10;;;;;;6202364;23;20418;-81
2021/04/27 23:39:45;;;;;;;10.03;2.90;;;3.60;73.40;;;;;;6245944;23;20400;-82
2021/04/27 23:42:26;;;;;;;;;;;;;;;;;;;;;
2021/04/27 23:44:59;;;;;;;8.43;2.70;;;3.50;78.10;;;;;;6177703;23;20402;-82
2021/04/27 23:51:03;;;;;;;9.90;3.20;;;3.50;83.40;;;;;;6162495;23;20178;-82
2021/04/27 23:56:39;;;;;;;8.50;3.70;;;3.30;84.00;;;;;;6161175;23;20508;-82
2021/04/27 23:59:22;;;;;;;9.20;3.10;;;3.30;87.50;;;;;;6152691;23;20894;-82
